Terminal Aerodrome Forecast
Issued by NWS

Home | Current Version | Previous Version | Text Only | Print | Product List | Glossary On
Versions: 1 2 3 4 5 6 7 8 9 10 11 12 13 14 15 16 17 18 19 20 21
000
FTUS43 KMQT 212300
TAFIWD
TAF
KIWD 212320Z 2200/2224 20015G25KT P6SM BKN090 WS010/24045KT
     FM220800 22013G21KT P6SM BKN025
     FM221400 22010KT P6SM OVC015
      AMD LTD TO CLD VIS AND WIND=

USA.gov is the U.S. government's official web portal to all federal, state and local government web resources and services.